Date,TemperatureHighF,TemperatureAvgF,TemperatureLowF,DewpointHighF,DewpointAvgF,DewpointLowF,HumidityHigh,HumidityAvg,HumidityLow,PressureMaxIn,PressureMinIn,WindSpeedMaxMPH,WindSpeedAvgMPH,GustSpeedMaxMPH,PrecipitationSumIn
2013-1-1,44.0,40.8,36.0,35.0,32.8,30.0,85,73,64,0.00,40.00,27,19,41,0.00
2013-1-2,50.0,40.5,37.0,36.0,18.5,-99.9,68,55,53,0.00,40.00,13,7,17,0.00
2013-1-3,51.0,47.2,40.0,38.0,33.6,27.0,72,59,45,0.00,40.00,11,6,16,0.00
2013-1-4,52.0,48.1,41.0,38.0,20.6,-99.9,66,50,50,0.00,40.00,10,6,14,0.00
2013-1-5,50.0,48.8,45.0,42.0,40.9,39.0,81,74,68,0.00,40.00,14,8,27,0.00
2013-1-6,42.0,41.7,41.0,41.0,40.2,40.0,95,94,94,0.00,40.00,7,6,16,0.00
2013-1-7,54.0,50.0,44.0,43.0,40.5,36.0,79,70,59,0.00,40.00,6,3,40,0.00
2013-1-8,56.0,52.2,46.0,41.0,27.6,-99.9,75,57,52,0.00,40.00,17,13,28,0.00
2013-1-9,48.0,46.4,45.0,44.0,42.0,38.0,91,84,76,0.00,40.00,19,12,30,0.00
2013-1-10,46.0,42.7,38.0,33.0,30.5,27.0,78,63,49,0.00,40.00,17,9,23,0.00
2013-1-11,43.0,41.6,36.0,37.0,30.5,26.0,82,65,54,0.00,40.00,15,10,22,0.00
2013-1-12,45.0,40.4,35.0,23.0,20.5,19.0,60,45,35,0.00,40.00,13,9,21,0.00
2013-1-13,43.0,39.1,32.0,19.0,16.3,15.0,58,40,32,0.00,40.00,10,9,17,0.00
2013-1-14,43.0,39.0,34.0,17.0,13.2,11.0,37,35,28,0.00,40.00,23,17,34,0.00
2013-1-15,47.0,43.6,38.0,28.0,23.2,18.0,56,44,37,0.00,40.00,11,8,18,0.00
2013-1-16,51.0,46.0,37.0,33.0,29.8,26.0,64,53,47,0.00,40.00,11,6,13,0.00
2013-1-17,56.0,49.8,39.0,33.0,31.9,30.0,71,51,42,0.00,40.00,12,9,16,0.00
2013-1-18,58.0,52.2,44.0,36.0,34.0,29.0,57,50,43,0.00,40.00,15,12,22,0.00
2013-1-19,56.0,51.3,45.0,40.0,33.5,24.0,58,50,43,0.00,40.00,12,10,18,0.00
2013-1-20,56.0,52.9,47.0,35.0,31.1,23.0,50,43,38,0.00,40.00,14,11,21,0.00
2013-1-21,57.0,53.2,41.0,39.0,36.0,31.0,72,53,45,0.00,40.00,14,9,17,0.00
2013-1-22,59.0,53.2,43.0,39.0,36.1,32.0,66,53,45,0.00,40.00,9,6,12,0.00
2013-1-23,58.0,51.8,46.0,46.0,40.2,26.0,92,67,29,0.00,40.00,11,5,33,0.01
2013-1-24,49.0,48.1,46.0,47.0,45.9,44.0,94,92,86,0.00,40.00,24,10,34,0.58
2013-1-25,60.0,53.2,49.0,55.0,50.1,47.0,93,89,77,0.00,40.00,10,4,36,0.14
2013-1-26,53.0,48.0,43.0,50.0,42.7,37.0,94,83,62,0.00,40.00,26,12,38,0.01
2013-1-27,51.0,43.9,39.0,39.0,35.8,32.0,89,74,51,0.00,40.00,15,9,23,0.00
2013-1-28,52.0,43.9,39.0,40.0,36.1,31.0,86,75,55,0.00,40.00,14,8,20,0.00
2013-1-29,53.0,46.5,41.0,41.0,38.1,35.0,89,73,51,0.00,40.00,14,7,18,0.00
2013-1-30,60.0,55.1,51.0,37.0,32.5,24.0,55,43,26,0.00,40.00,23,18,37,0.00
2013-1-31,60.0,52.0,45.0,44.0,40.4,33.0,79,65,53,0.00,40.00,9,6,16,0.00
2013-2-1,60.0,51.8,44.0,47.0,42.7,37.0,82,72,59,0.00,40.00,12,6,20,0.00
2013-2-2,57.0,51.4,45.0,48.0,42.8,37.0,93,73,54,0.00,40.00,8,4,13,0.00
2013-2-3,55.0,46.9,42.0,43.0,41.1,38.0,94,81,62,0.00,40.00,11,7,16,0.00
2013-2-4,63.0,50.4,43.0,48.0,42.5,36.0,93,75,58,0.00,40.00,10,3,21,0.00
2013-2-5,48.0,44.7,41.0,44.0,41.3,39.0,95,88,77,0.00,40.00,17,12,24,0.00
2013-2-6,55.0,46.1,40.0,43.0,39.8,37.0,93,80,58,0.00,40.00,30,-40,41,0.00
2013-2-7,48.0,43.3,39.0,41.0,36.3,34.0,91,76,65,0.00,40.00,17,-42,51,0.03
2013-2-8,49.0,40.9,37.0,39.0,35.6,29.0,94,82,58,0.00,40.00,15,7,25,0.07
2013-2-9,55.0,45.7,40.0,31.0,24.6,21.0,65,44,32,0.00,40.00,12,6,22,0.03
2013-2-10,54.0,48.1,41.0,33.0,28.4,20.0,59,46,38,0.00,40.00,16,6,25,0.00
2013-2-11,56.0,48.9,42.0,33.0,25.6,22.0,59,41,29,0.00,40.00,15,8,21,0.00
2013-2-12,57.0,49.1,43.0,35.0,29.8,25.0,55,47,40,0.00,40.00,9,4,41,0.00
2013-2-13,60.0,51.6,44.0,41.0,34.0,30.0,61,51,38,0.00,40.00,10,4,28,0.00
2013-2-14,61.0,54.8,46.0,38.0,35.8,32.0,64,49,35,0.00,40.00,26,13,37,0.00
2013-2-15,65.0,57.7,50.0,45.0,38.5,32.0,59,49,35,0.00,40.00,16,8,23,0.00
2013-2-16,63.0,56.3,50.0,45.0,39.9,31.0,65,54,46,0.00,40.00,9,6,17,0.00
2013-2-17,61.0,50.9,43.0,43.0,39.6,34.0,93,66,43,0.00,40.00,15,7,30,0.00
2013-2-18,49.0,43.5,41.0,40.0,37.1,34.0,94,79,57,0.00,40.00,21,13,28,0.00
2013-2-19,45.0,39.9,36.0,38.0,34.6,30.0,93,81,70,0.00,40.00,23,13,42,0.14
2013-2-20,51.0,42.3,35.0,39.0,32.8,27.0,89,70,52,0.00,40.00,15,8,23,0.01
2013-2-21,55.0,45.4,39.0,39.0,34.2,30.0,89,66,39,0.00,40.00,17,8,35,0.00
2013-2-22,58.0,48.8,43.0,41.0,33.6,28.0,89,57,39,0.00,40.00,15,7,21,0.00
2013-2-23,55.0,47.0,43.0,43.0,36.9,25.0,94,70,40,0.00,40.00,20,10,28,0.00
2013-2-24,56.0,47.9,41.0,29.0,22.3,18.0,54,37,28,0.00,40.00,20,11,37,0.00
2013-2-25,58.0,49.3,41.0,44.0,32.2,18.0,81,54,28,0.00,40.00,12,6,25,0.00
2013-2-26,62.0,51.4,43.0,38.0,26.7,18.0,78,41,20,0.00,40.00,20,9,34,0.00
2013-2-27,56.0,52.6,50.0,25.0,19.8,16.0,33,27,23,0.00,40.00,6,4,8,0.00
2013-3-6,51.0,46.8,42.0,39.0,36.5,35.0,82,68,58,0.00,40.00,18,11,33,0.00
2013-3-7,55.0,45.4,39.0,42.0,36.5,31.0,93,72,46,0.00,40.00,13,7,23,0.15
2013-3-8,51.0,45.6,41.0,42.0,39.5,35.0,94,80,54,0.00,40.00,22,11,102,0.25
2013-3-9,64.0,50.9,43.0,41.0,38.3,34.0,87,64,36,0.00,40.00,17,8,32,0.00
2013-3-10,65.0,57.0,50.0,39.0,30.9,24.0,51,38,25,0.00,40.00,14,6,33,0.00
2013-3-11,70.0,58.1,49.0,42.0,34.9,26.0,52,42,35,0.00,40.00,12,5,17,0.00
2013-3-12,73.0,60.5,51.0,52.0,42.0,34.0,62,51,38,0.00,40.00,9,4,38,0.00
2013-3-13,74.0,64.1,54.0,52.0,46.8,41.0,64,54,44,0.00,40.00,11,4,15,0.00
2013-3-14,68.0,61.5,56.0,53.0,44.9,32.0,66,55,34,0.00,40.00,14,6,60,0.00
2013-3-15,70.0,58.9,51.0,49.0,38.8,29.0,72,48,37,0.00,40.00,14,5,60,0.00
2013-3-16,66.0,55.5,47.0,47.0,42.3,38.0,83,63,39,0.00,40.00,19,7,30,0.00
2013-3-17,66.0,53.3,45.0,43.0,40.0,37.0,77,62,40,0.00,40.00,17,6,38,0.00
2013-3-18,61.0,53.6,47.0,44.0,37.5,28.0,79,55,41,0.00,40.00,13,6,27,0.00
2013-3-19,68.0,55.8,49.0,46.0,37.0,27.0,78,51,33,0.00,40.00,17,-38,27,0.05
2013-3-20,61.0,54.2,49.0,52.0,46.4,41.0,92,76,50,0.00,40.00,18,10,82,0.07
2013-3-21,58.0,49.5,41.0,47.0,40.7,37.0,92,73,50,0.00,40.00,15,10,23,0.01
2013-3-22,64.0,54.8,48.0,39.0,20.1,10.0,71,28,13,0.00,40.00,26,14,40,0.00
2013-3-23,66.0,55.4,50.0,37.0,22.4,15.0,49,28,21,0.00,40.00,24,13,31,0.00
2013-3-24,68.0,57.2,49.0,43.0,33.1,20.0,63,40,30,0.00,40.00,14,6,19,0.00
2013-3-25,57.0,48.8,43.0,44.0,39.4,36.0,90,71,56,0.00,40.00,20,10,29,0.00
2013-3-26,64.0,50.9,43.0,44.0,41.2,39.0,90,72,45,0.00,40.00,15,-32,39,0.00
2013-3-27,61.0,52.1,47.0,49.0,43.3,39.0,81,73,58,0.00,40.00,17,9,25,0.00
2013-3-28,69.0,62.1,53.0,50.0,49.4,47.0,86,64,46,0.00,40.00,12,6,30,0.00
2013-3-29,74.0,60.3,52.0,50.0,47.5,45.0,86,64,41,0.00,40.00,22,11,29,0.00
2013-3-30,69.0,58.4,52.0,51.0,46.4,-99.9,90,70,37,0.00,40.00,18,-13,28,0.06
2013-3-31,67.0,56.3,51.0,49.0,45.2,41.0,88,68,38,0.00,40.00,19,-9,33,0.06
2013-4-1,63.0,54.3,49.0,50.0,46.9,43.0,91,77,56,0.00,40.00,17,9,40,0.06
2013-4-2,68.0,55.0,46.0,51.0,46.3,43.0,90,74,52,0.00,40.00,12,7,20,0.01
2013-4-3,76.0,60.2,50.0,51.0,44.9,38.0,80,59,37,0.00,40.00,15,5,25,0.00
2013-4-4,63.0,55.4,49.0,52.0,48.4,43.0,90,78,65,0.00,40.00,20,14,31,0.12
2013-4-5,60.0,53.9,49.0,49.0,47.2,45.0,90,78,64,0.00,40.00,18,10,25,0.01
2013-4-6,59.0,53.4,48.0,50.0,46.9,45.0,91,79,65,0.00,40.00,15,10,25,0.00
2013-4-7,58.0,51.7,47.0,51.0,45.9,42.0,92,81,69,0.00,40.00,23,12,35,0.01
2013-4-8,63.0,51.0,41.0,46.0,34.5,22.0,91,59,21,0.00,40.00,33,13,61,0.02
2013-4-9,69.0,58.5,49.0,38.0,28.8,24.0,62,35,18,0.00,40.00,19,11,36,0.00
2013-4-10,72.0,63.5,59.0,39.0,33.0,27.0,36,32,26,0.00,40.00,13,8,22,0.00
2013-4-18,73.0,64.8,57.0,36.0,32.5,28.0,35,30,23,0.00,40.00,16,8,24,0.00
2013-4-19,78.0,66.1,57.0,44.0,37.3,28.0,50,35,26,0.00,40.00,16,6,24,0.00
2013-4-20,76.0,64.0,54.0,44.0,39.6,33.0,64,42,26,0.00,40.00,34,-11,56,0.00
2013-4-21,83.0,70.3,55.0,45.0,36.7,32.0,52,30,16,0.00,40.00,15,-13,30,0.00
2013-4-22,86.0,72.6,63.0,42.0,37.3,33.0,38,28,18,0.00,40.00,22,10,32,0.00
2013-4-23,80.0,67.0,56.0,43.0,28.0,19.0,61,25,14,0.00,40.00,26,15,38,0.00
2013-4-24,66.0,58.1,50.0,47.0,40.8,31.0,88,54,37,0.00,40.00,21,10,32,0.00
2013-4-25,63.0,54.1,48.0,48.0,46.0,44.0,89,75,57,0.00,40.00,21,15,31,0.00
2013-4-26,69.0,55.3,47.0,48.0,45.9,44.0,91,73,47,0.00,40.00,13,9,20,0.00
2013-4-27,76.0,60.1,45.0,49.0,45.4,39.0,94,63,33,0.00,40.00,12,7,45,0.00
2013-4-28,86.0,68.2,50.0,52.0,44.8,34.0,68,45,27,0.00,40.00,26,6,61,0.00
2013-4-29,84.0,75.6,63.0,48.0,42.2,35.0,54,31,20,0.00,40.00,19,11,29,0.00
2013-4-30,76.0,68.8,55.0,48.0,37.2,13.0,66,36,11,0.00,40.00,23,9,34,0.00
2013-5-1,80.0,70.0,60.0,32.0,20.9,14.0,19,16,12,0.00,40.00,25,17,42,0.00
2013-5-2,90.0,75.6,67.0,35.0,24.4,15.0,21,15,12,0.00,40.00,24,13,38,0.00
2013-5-3,86.0,76.5,70.0,32.0,25.8,19.0,19,15,12,0.00,40.00,34,11,63,0.00
2013-5-4,84.0,73.0,55.0,44.0,33.3,25.0,63,25,14,0.00,40.00,23,-38,59,0.00
2013-5-5,68.0,57.8,51.0,46.0,43.3,41.0,74,60,38,0.00,40.00,32,16,46,0.00
2013-5-6,64.0,58.7,53.0,49.0,45.0,43.0,70,61,47,0.00,40.00,15,7,23,0.00
2013-5-7,68.0,58.9,52.0,47.0,45.4,43.0,77,62,46,0.00,40.00,17,9,39,0.00
2013-5-8,62.0,54.4,49.0,48.0,46.3,43.0,90,75,60,0.00,40.00,18,12,27,0.00
2013-5-9,62.0,52.7,48.0,48.0,46.2,45.0,93,80,55,0.00,40.00,21,13,72,0.00
2013-5-10,70.0,55.9,48.0,52.0,45.1,-99.9,93,75,51,0.00,40.00,16,11,25,0.00
2013-5-11,84.0,67.8,52.0,52.0,44.9,-99.9,85,49,25,0.00,40.00,15,6,38,0.00
2013-5-12,78.0,68.9,60.0,53.0,43.9,22.0,60,41,17,0.00,40.00,17,8,36,0.00
2013-5-13,77.0,64.2,55.0,51.0,44.3,32.0,69,49,29,0.00,40.00,19,-12,26,0.00
2013-5-14,71.0,58.8,49.0,49.0,45.7,39.0,89,64,44,0.00,40.00,21,-67,42,0.00
2013-5-15,64.0,53.7,48.0,46.0,41.8,36.0,85,66,39,0.00,40.00,24,-4,35,0.00
2013-5-16,64.0,49.6,50.0,51.0,30.3,-99.9,90,78,57,0.00,40.00,23,-27,52,0.00
2013-5-17,62.0,52.9,49.0,46.0,37.9,-99.9,83,67,39,0.00,40.00,42,16,64,0.00
2013-5-18,67.0,55.2,45.0,48.0,43.5,38.0,84,67,41,0.00,40.00,20,13,67,0.00
2013-5-19,78.0,64.7,51.0,47.0,41.2,34.0,75,46,26,0.00,40.00,17,7,50,0.00
2013-5-20,84.0,72.7,64.0,39.0,33.3,26.0,35,24,15,0.00,40.00,22,11,30,0.00
2013-5-21,61.0,54.1,47.0,47.0,41.9,34.0,79,64,46,0.00,40.00,31,16,40,0.00
2013-5-22,60.0,50.0,43.0,41.0,34.2,21.0,83,59,24,0.00,40.00,23,11,33,0.00
2013-5-23,62.0,51.1,44.0,42.0,38.7,32.0,84,65,40,0.00,40.00,20,14,30,0.00
2013-5-24,63.0,53.3,46.0,42.0,38.3,32.0,75,58,37,0.00,40.00,24,12,35,0.00
2013-5-25,60.0,51.4,45.0,45.0,40.5,36.0,89,67,50,0.00,40.00,22,17,32,0.00
2013-5-26,64.0,53.4,48.0,49.0,47.4,45.0,93,81,56,0.00,40.00,21,16,32,0.00
2013-5-27,60.0,54.2,50.0,51.0,48.0,45.0,89,80,69,0.00,40.00,18,12,36,0.00
2013-5-28,64.0,57.0,52.0,54.0,50.3,47.0,92,79,58,0.00,40.00,18,12,31,0.01
2013-5-29,63.0,55.2,50.0,51.0,47.0,44.0,86,74,60,0.00,40.00,22,14,30,0.00
2013-5-30,69.0,56.8,47.0,45.0,41.3,36.0,88,59,30,0.00,40.00,18,10,29,0.00
2013-5-31,81.0,68.5,52.0,45.0,38.1,32.0,60,35,21,0.00,40.00,16,8,44,0.00
2013-6-1,87.0,76.3,63.0,45.0,39.9,34.0,47,28,17,0.00,40.00,15,8,72,0.00
2013-6-2,78.0,67.9,59.0,49.0,46.6,42.0,62,47,33,0.00,40.00,21,9,68,0.00
2013-6-3,75.0,61.1,48.0,50.0,48.0,45.0,91,65,42,0.00,40.00,21,10,45,0.00
2013-6-4,69.0,58.0,50.0,52.0,49.4,47.0,92,74,54,0.00,40.00,20,14,42,0.00
2013-6-5,68.0,57.0,50.0,51.0,48.6,47.0,92,75,52,0.00,40.00,21,14,36,0.00
2013-6-6,77.0,61.9,50.0,52.0,49.8,47.0,92,68,42,0.00,40.00,14,8,43,0.00
2013-6-7,94.0,72.1,51.0,56.0,51.2,45.0,91,54,27,0.00,40.00,14,8,46,0.00
2013-6-8,98.0,82.6,68.0,54.0,49.4,41.0,60,33,22,0.00,40.00,23,11,63,0.00
2013-6-9,73.0,62.7,55.0,54.0,51.9,50.0,86,69,48,0.00,40.00,23,14,41,0.00
2013-6-10,70.0,60.0,54.0,50.0,48.3,46.0,84,67,44,0.00,40.00,25,14,50,0.00
2013-6-11,72.0,59.8,52.0,53.0,50.2,48.0,88,72,51,0.00,40.00,17,8,34,0.00
2013-6-12,72.0,61.4,50.0,49.0,44.5,40.0,83,55,32,0.00,40.00,19,11,42,0.00
2013-6-13,72.0,60.4,47.0,45.0,41.1,32.0,85,54,29,0.00,40.00,18,10,26,0.00
2013-6-14,80.0,70.5,60.0,41.0,35.4,31.0,44,29,18,0.00,40.00,18,11,28,0.00
2013-6-15,68.0,59.8,51.0,49.0,44.7,32.0,79,59,30,0.00,40.00,22,11,35,0.00
2013-6-16,74.0,61.0,52.0,49.0,42.9,39.0,74,53,29,0.00,40.00,16,10,27,0.00
2013-6-17,65.0,57.4,51.0,52.0,47.8,43.0,87,71,55,0.00,40.00,21,12,32,0.00
2013-6-18,61.0,54.7,51.0,50.0,46.9,43.0,92,76,54,0.00,40.00,24,18,37,0.00
2013-6-19,67.0,56.3,49.0,48.0,45.6,44.0,88,69,44,0.00,40.00,22,13,48,0.00
2013-6-20,72.0,57.6,51.0,45.0,43.3,40.0,74,61,37,0.00,40.00,22,6,33,0.00
2013-6-21,77.0,73.0,69.0,43.0,40.6,38.0,35,31,28,0.00,40.00,16,15,25,0.00
2013-6-22,83.0,71.9,53.0,49.0,42.0,37.0,87,37,21,0.00,40.00,18,11,40,0.00
2013-6-23,65.0,58.3,53.0,56.0,53.3,49.0,92,84,69,0.00,40.00,22,13,28,0.00
2013-6-24,64.0,60.8,57.0,58.0,55.4,54.0,91,83,74,0.00,40.00,15,8,35,0.03
2013-6-25,75.0,66.2,60.0,60.0,56.3,52.0,84,71,58,0.00,40.00,19,14,30,0.02
2013-6-26,79.0,68.2,60.0,60.0,57.6,53.0,90,71,50,0.00,40.00,18,9,42,0.00
2013-6-27,84.0,71.7,60.0,57.0,53.8,50.0,82,57,32,0.00,40.00,17,8,58,0.00
2013-6-28,93.0,82.9,71.0,55.0,48.6,41.0,47,31,21,0.00,40.00,18,7,52,0.00
2013-6-29,95.0,86.4,80.0,51.0,45.0,41.0,30,24,19,0.00,40.00,17,9,26,0.00
2013-6-30,91.0,81.3,73.0,52.0,46.9,43.0,41,30,21,0.00,40.00,14,8,37,0.00
2013-7-1,90.0,81.3,66.0,53.0,47.9,39.0,55,33,23,0.00,40.00,17,8,52,0.00
2013-7-2,95.0,82.7,72.0,58.0,52.2,45.0,53,36,24,0.00,40.00,22,9,64,0.00
2013-7-3,91.0,77.7,59.0,55.0,53.2,50.0,80,47,25,0.00,40.00,16,8,36,0.00
2013-7-4,93.0,81.3,72.0,56.0,52.6,44.0,55,39,25,0.00,40.00,18,9,55,0.00
2013-7-5,74.0,61.1,53.0,51.0,48.5,41.0,84,65,33,0.00,40.00,25,18,34,0.00
2013-7-6,74.0,59.4,51.0,51.0,49.4,48.0,88,71,44,0.00,40.00,19,9,28,0.00
2013-7-7,79.0,64.1,50.0,52.0,49.8,47.0,91,63,34,0.00,40.00,17,7,55,0.00
2013-7-8,81.0,64.5,51.0,52.0,50.2,48.0,90,64,33,0.00,40.00,14,6,55,0.00
2013-7-9,91.0,75.0,58.0,53.0,47.1,40.0,67,40,23,0.00,40.00,15,6,21,0.00
2013-7-10,82.0,68.9,56.0,54.0,46.2,-99.9,77,48,32,0.00,40.00,18,8,24,0.00
2013-7-11,75.0,60.8,51.0,52.0,49.9,48.0,91,70,44,0.00,40.00,16,10,26,0.00
2013-7-12,76.0,62.2,50.0,51.0,46.6,37.0,90,61,30,0.00,40.00,18,8,27,0.00
2013-7-13,82.0,71.3,61.0,47.0,40.7,32.0,43,33,26,0.00,40.00,16,8,63,0.00
2013-7-14,76.0,66.2,56.0,51.0,46.9,39.0,74,51,34,0.00,40.00,18,8,25,0.00
2013-7-15,70.0,58.1,51.0,51.0,49.6,48.0,91,75,51,0.00,40.00,19,11,28,0.00
2013-7-16,67.0,61.1,55.0,52.0,50.3,48.0,85,68,56,0.00,40.00,21,19,31,0.00
2013-7-17,73.0,61.6,53.0,53.0,51.1,49.0,87,70,46,0.00,40.00,16,11,24,0.00
2013-7-18,84.0,69.2,50.0,51.0,44.9,40.0,90,47,21,0.00,40.00,15,8,20,0.00
2013-7-19,85.0,69.2,52.0,53.0,48.0,35.0,87,51,26,0.00,40.00,15,7,46,0.00
2013-7-20,86.0,67.9,52.0,54.0,49.4,-99.9,91,56,33,0.00,40.00,13,8,23,0.00
2013-7-21,86.0,72.1,53.0,53.0,50.3,45.0,88,50,25,0.00,40.00,22,10,31,0.00
2013-7-22,78.0,68.7,55.0,56.0,52.2,46.0,84,57,40,0.00,40.00,20,8,29,0.00
2013-7-23,82.0,70.5,60.0,54.0,51.5,47.0,76,53,36,0.00,40.00,14,8,24,0.00
2013-7-24,85.0,72.1,58.0,52.0,45.2,34.0,76,44,16,0.00,40.00,17,8,24,0.00
2013-7-25,81.0,72.3,63.0,52.0,46.8,36.0,53,41,30,0.00,40.00,18,10,26,0.00
2013-7-26,81.0,68.3,56.0,53.0,50.8,47.0,81,56,35,0.00,40.00,15,7,22,0.00
2013-7-27,79.0,65.8,54.0,54.0,52.4,51.0,91,64,41,0.00,40.00,16,8,23,0.00
2013-7-28,76.0,63.3,54.0,53.0,51.5,50.0,89,68,44,0.00,40.00,18,10,25,0.00
2013-7-29,73.0,59.8,50.0,52.0,49.5,47.0,90,71,42,0.00,40.00,20,10,28,0.00
2013-7-30,76.0,61.6,51.0,52.0,50.4,48.0,91,69,43,0.00,40.00,17,10,26,0.00
2013-7-31,73.0,60.6,52.0,51.0,49.2,45.0,90,69,43,0.00,40.00,18,11,27,0.00
2013-8-1,68.0,59.5,51.0,49.0,47.3,45.0,86,66,47,0.00,40.00,21,15,29,0.00
2013-8-2,75.0,62.8,52.0,51.0,45.7,36.0,85,55,36,0.00,40.00,17,9,25,0.00
2013-8-3,75.0,62.0,50.0,52.0,49.6,45.0,91,67,41,0.00,40.00,17,9,40,0.00
2013-8-4,73.0,59.8,52.0,52.0,50.4,49.0,91,74,47,0.00,40.00,16,11,25,0.00
2013-8-5,72.0,59.6,52.0,52.0,50.4,49.0,91,74,49,0.00,40.00,17,11,24,0.00
2013-8-6,69.0,57.8,52.0,52.0,50.2,49.0,91,78,54,0.00,40.00,22,14,30,0.00
2013-8-7,69.0,59.3,54.0,52.0,51.1,49.0,91,75,53,0.00,40.00,21,14,28,0.00
2013-8-8,70.0,58.1,53.0,53.0,51.2,50.0,91,79,53,0.00,40.00,20,12,32,0.00
2013-8-9,68.0,58.5,52.0,53.0,50.6,49.0,91,76,57,0.00,40.00,20,13,29,0.00
2013-8-10,72.0,60.5,53.0,53.0,51.6,49.0,91,75,45,0.00,40.00,17,12,25,0.00
2013-8-11,75.0,62.4,54.0,53.0,50.6,47.0,92,69,38,0.00,40.00,14,10,21,0.00
2013-8-12,77.0,67.4,56.0,52.0,46.9,44.0,69,49,31,0.00,40.00,17,9,25,0.00
2013-8-13,87.0,70.4,57.0,48.0,41.1,-99.9,52,37,20,0.00,40.00,14,7,44,0.00
2013-8-14,77.0,65.6,56.0,56.0,46.5,-99.9,85,55,31,0.00,40.00,18,10,26,0.00
2013-8-15,78.0,63.8,58.0,60.0,51.2,-99.9,91,72,47,0.00,40.00,17,12,32,0.00
2013-8-16,81.0,69.0,64.0,59.0,48.7,-99.9,81,54,31,0.00,40.00,18,10,27,0.00
2013-8-17,78.0,67.0,60.0,55.0,46.7,-99.9,71,50,38,0.00,40.00,19,8,51,0.00
2013-8-18,93.0,77.2,60.0,53.0,50.2,45.0,76,42,23,0.00,40.00,14,7,34,0.00
2013-8-19,92.0,77.9,72.0,54.0,44.1,-99.9,51,33,27,0.00,40.00,21,8,34,0.00
2013-8-20,81.0,69.0,61.0,56.0,53.2,50.0,78,59,35,0.00,40.00,18,9,27,0.00
2013-8-21,74.0,62.2,54.0,53.0,51.9,50.0,89,71,47,0.00,40.00,20,11,27,0.00
2013-8-22,71.0,59.6,54.0,53.0,51.7,50.0,90,76,53,0.00,40.00,20,13,28,0.00
2013-8-23,72.0,59.8,54.0,53.0,51.1,48.0,89,74,49,0.00,40.00,20,12,29,0.00
2013-8-24,72.0,62.1,54.0,56.0,49.4,-99.9,90,66,44,0.00,40.00,19,11,32,0.00
2013-8-25,78.0,65.1,59.0,58.0,56.4,54.0,91,76,48,0.00,40.00,23,12,32,0.00
2013-8-26,74.0,63.0,58.0,55.0,52.9,50.0,87,71,43,0.00,40.00,16,10,31,0.00
2013-8-27,76.0,63.6,58.0,50.0,45.1,41.0,69,52,38,0.00,40.00,10,5,59,0.00
2013-8-28,77.0,70.3,62.0,58.0,55.4,52.0,82,61,42,0.00,40.00,17,12,26,0.00
2013-8-29,78.0,65.6,57.0,60.0,56.1,52.0,91,74,40,0.00,40.00,17,9,24,0.00
2013-8-30,86.0,73.6,63.0,56.0,51.6,44.0,75,48,28,0.00,40.00,17,8,23,0.00
2013-8-31,78.0,68.2,61.0,53.0,46.9,-99.9,69,48,35,0.00,40.00,21,10,29,0.00
2013-9-1,77.0,66.3,58.0,57.0,51.9,48.0,84,62,37,0.00,40.00,19,11,32,0.00
2013-9-2,77.0,65.2,60.0,59.0,56.5,52.0,91,76,49,0.00,40.00,18,10,24,0.00
2013-9-3,71.0,63.9,56.0,57.0,50.7,44.0,89,65,38,0.00,40.00,22,11,41,0.00
2013-9-4,71.0,62.5,56.0,54.0,52.0,47.0,87,70,43,0.00,40.00,23,15,29,0.00
2013-9-5,72.0,62.4,57.0,53.0,51.7,47.0,82,70,41,0.00,40.00,21,15,31,0.00
2013-9-6,88.0,72.1,56.0,51.0,44.2,40.0,77,41,20,0.00,40.00,21,9,32,0.00
2013-9-7,91.0,79.0,70.0,44.0,39.1,-99.9,35,25,16,0.00,40.00,16,6,34,0.00
2013-9-8,89.0,77.4,64.0,52.0,45.0,39.0,44,32,25,0.00,40.00,14,6,19,0.00
2013-9-9,92.0,80.5,71.0,50.0,42.6,33.0,34,26,20,0.00,40.00,15,7,23,0.00
2013-9-10,78.0,67.9,59.0,55.0,52.8,33.0,85,61,20,0.00,40.00,19,11,27,0.00
2013-9-11,71.0,61.6,55.0,55.0,52.8,51.0,88,74,53,0.00,40.00,18,11,28,0.00
2013-9-12,74.0,62.2,56.0,56.0,54.8,53.0,91,79,53,0.00,40.00,19,11,25,0.00
2013-9-13,75.0,61.6,54.0,55.0,52.3,47.0,92,74,46,0.00,40.00,17,11,26,0.00
2013-9-14,66.0,56.6,53.0,54.0,50.2,-99.9,92,82,65,0.00,40.00,19,14,27,0.00
2013-9-15,73.0,61.2,53.0,56.0,52.2,50.0,91,75,49,0.00,40.00,18,13,25,0.00
2013-9-16,76.0,62.8,55.0,56.0,53.1,50.0,89,73,43,0.00,40.00,22,12,32,0.00
2013-9-17,65.0,59.6,56.0,51.0,50.4,48.0,83,72,56,0.00,40.00,24,16,34,0.00
2013-9-18,68.0,60.8,57.0,48.0,44.0,35.0,70,56,29,0.00,40.00,11,5,18,0.00
2013-9-19,86.0,73.4,61.0,43.0,37.2,28.0,41,28,16,0.00,40.00,16,6,32,0.00
2013-9-20,70.0,61.7,54.0,55.0,48.4,28.0,87,64,21,0.00,40.00,18,13,32,0.00
2013-9-21,64.0,58.4,55.0,55.0,50.8,-99.9,90,78,59,0.00,40.00,21,14,29,0.49
2013-9-22,67.0,58.8,53.0,52.0,50.1,47.0,90,74,49,0.00,40.00,19,9,28,0.01
2013-9-23,81.0,64.8,54.0,55.0,50.8,48.0,84,63,33,0.00,40.00,15,6,30,0.00
2013-9-24,67.0,60.6,54.0,53.0,50.0,47.0,80,68,50,0.00,40.00,25,14,36,0.00
2013-9-25,62.0,55.6,51.0,48.0,44.7,41.0,83,68,48,0.00,40.00,22,13,40,0.00
2013-9-26,71.0,58.1,49.0,44.0,37.6,33.0,77,49,28,0.00,40.00,17,7,25,0.00
2013-9-27,74.0,63.3,58.0,37.0,32.0,29.0,43,31,20,0.00,40.00,17,10,25,0.00
2013-9-28,80.0,67.8,57.0,51.0,31.4,-99.9,81,30,15,0.00,40.00,15,8,41,0.00
2013-9-29,73.0,62.3,54.0,55.0,50.6,44.0,88,67,44,0.00,40.00,18,10,27,0.00
2013-9-30,71.0,64.0,58.0,56.0,54.0,52.0,84,71,57,0.00,40.00,15,9,25,0.00
2013-10-1,67.0,61.5,59.0,46.0,44.7,43.0,59,54,46,0.00,40.00,12,8,19,0.00
2013-10-2,73.0,61.3,53.0,46.0,42.0,36.0,69,51,32,0.00,40.00,16,6,31,0.00
2013-10-3,70.0,60.3,51.0,42.0,30.1,20.0,66,35,16,0.00,40.00,20,11,38,0.00
2013-10-4,73.0,64.9,56.0,29.0,25.1,21.0,30,22,16,0.00,40.00,36,20,53,0.00
2013-10-5,80.0,69.4,59.0,27.0,23.5,20.0,24,18,13,0.00,40.00,16,9,37,0.00
2013-10-6,83.0,71.1,62.0,31.0,27.0,22.0,24,19,14,0.00,40.00,10,4,19,0.00
2013-10-7,79.0,70.4,63.0,34.0,27.1,22.0,26,20,15,0.00,40.00,17,6,23,0.00
2013-10-8,72.0,62.1,51.0,43.0,35.8,22.0,73,39,23,0.00,40.00,21,12,42,0.00
2013-10-9,64.0,54.4,45.0,44.0,41.2,37.0,88,63,42,0.00,40.00,14,9,51,0.00
2013-10-10,68.0,61.3,55.0,46.0,39.0,32.0,72,45,31,0.00,40.00,16,8,26,0.00
2013-10-11,65.0,55.4,47.0,46.0,43.7,41.0,87,66,46,0.00,40.00,14,6,34,0.00
2013-10-12,67.0,56.5,50.0,46.0,39.1,-99.9,82,54,39,0.00,40.00,17,9,25,0.00
2013-10-13,70.0,58.2,49.0,45.0,39.3,34.0,82,52,27,0.00,40.00,16,8,23,0.00
2013-10-14,74.0,63.4,55.0,36.0,32.3,25.0,47,32,21,0.00,40.00,20,9,33,0.00
2013-10-15,73.0,65.5,58.0,31.0,28.4,25.0,33,25,19,0.00,40.00,19,11,34,0.00
2013-10-16,81.0,68.3,59.0,31.0,27.8,24.0,27,22,16,0.00,40.00,14,5,21,0.00
2013-10-17,78.0,68.6,61.0,32.0,28.3,25.0,28,22,15,0.00,40.00,13,6,22,0.00
2013-10-18,80.0,69.5,59.0,37.0,30.3,25.0,31,24,18,0.00,40.00,9,5,35,0.00
2013-10-19,82.0,68.4,59.0,41.0,32.9,-99.9,37,28,16,0.00,40.00,7,4,45,0.00
2013-10-20,81.0,68.4,59.0,40.0,33.4,25.0,36,28,20,0.00,40.00,12,5,16,0.00
2013-10-21,76.0,64.9,50.0,46.0,39.0,24.0,65,40,21,0.00,40.00,8,3,41,0.00
2013-10-22,81.0,64.3,52.0,47.0,40.8,33.0,63,44,24,0.00,40.00,8,3,31,0.00
2013-10-23,80.0,59.5,48.0,48.0,42.6,32.0,84,56,29,0.00,40.00,8,3,46,0.00
2013-10-24,57.0,50.3,46.0,46.0,45.0,44.0,92,83,66,0.00,40.00,18,9,39,0.00
2013-10-25,74.0,57.6,46.0,48.0,45.3,42.0,92,67,33,0.00,40.00,12,5,28,0.00
2013-10-26,78.0,64.5,55.0,46.0,37.5,-99.9,62,39,23,0.00,40.00,7,3,42,0.00
2013-10-27,64.0,54.0,46.0,46.0,40.9,28.0,91,65,31,0.00,40.00,33,16,61,0.00
2013-10-28,57.0,50.0,47.0,44.0,40.7,-99.9,89,74,51,0.00,40.00,30,15,60,0.00
2013-10-29,58.0,51.9,48.0,45.0,42.6,41.0,83,71,55,0.00,40.00,14,9,41,0.00
2013-10-30,66.0,54.0,46.0,43.0,40.9,37.0,83,63,37,0.00,40.00,10,4,42,0.00
2013-10-31,69.0,59.1,50.0,42.0,38.5,34.0,70,49,30,0.00,40.00,7,3,32,0.00
2013-11-1,74.0,61.3,52.0,40.0,36.5,32.0,53,40,27,0.00,40.00,10,4,38,0.00
2013-11-2,69.0,59.4,52.0,48.0,35.2,-99.9,81,43,26,0.00,40.00,16,6,58,0.00
2013-11-3,60.0,54.2,50.0,43.0,26.6,16.0,73,37,20,0.00,40.00,22,11,32,0.00
2013-11-4,65.0,55.5,45.0,29.0,23.3,20.0,51,29,19,0.00,40.00,14,9,23,0.00
2013-11-5,67.0,59.8,54.0,28.0,25.0,21.0,31,26,22,0.00,40.00,21,12,32,0.00
2013-11-6,69.0,59.5,52.0,34.0,29.6,25.0,38,32,23,0.00,40.00,11,6,36,0.00
2013-11-7,73.0,62.6,57.0,33.0,29.5,26.0,36,29,17,0.00,40.00,13,6,19,0.00
2013-11-8,72.0,61.3,51.0,45.0,40.9,32.0,66,49,30,0.00,40.00,13,6,22,0.00
2013-11-9,74.0,59.5,51.0,43.0,38.0,-99.9,69,48,25,0.00,40.00,9,4,22,0.00
2013-11-10,66.0,56.8,49.0,46.0,40.1,30.0,84,55,41,0.00,40.00,12,5,16,0.00
2013-11-11,68.0,56.3,44.0,46.0,43.0,39.0,92,64,36,0.00,40.00,8,4,19,0.00
2013-11-12,70.0,60.8,54.0,45.0,42.5,39.0,68,52,32,0.00,40.00,11,5,22,0.00
2013-11-13,76.0,63.8,55.0,43.0,40.3,36.0,54,43,27,0.00,40.00,10,5,31,0.00
2013-11-14,66.0,55.9,48.0,48.0,43.7,39.0,86,65,46,0.00,40.00,15,-38,45,0.00
2013-11-15,62.0,51.6,45.0,44.0,38.3,31.0,89,63,32,0.00,40.00,60,-32,67,0.00
2013-11-16,57.0,49.5,43.0,46.0,38.4,-99.9,88,68,46,0.00,40.00,19,12,25,0.00
2013-11-17,59.0,51.6,45.0,45.0,42.0,40.0,90,71,52,0.00,40.00,12,7,20,0.00
2013-11-18,55.0,49.1,44.0,44.0,41.4,39.0,89,75,58,0.00,40.00,21,8,31,0.00
2013-11-19,60.0,53.6,47.0,50.0,45.0,41.0,87,73,59,0.00,40.00,14,8,28,0.09
2013-11-20,61.0,54.3,49.0,52.0,49.8,46.0,91,85,70,0.00,40.00,15,10,38,0.43
2013-11-21,54.0,49.1,43.0,46.0,32.7,21.0,92,58,29,0.00,40.00,33,18,44,0.34
2013-11-22,62.0,52.9,47.0,29.0,18.1,9.0,41,26,17,0.00,40.00,30,21,44,0.03
2013-11-23,63.0,52.3,44.0,36.0,29.1,-99.9,55,43,28,0.00,40.00,10,5,17,0.01
2013-11-24,61.0,53.1,46.0,40.0,34.9,31.0,67,51,32,0.00,40.00,8,4,16,0.00
2013-11-25,60.0,51.9,46.0,40.0,36.5,32.0,64,56,45,0.00,40.00,10,4,43,0.00
2013-11-26,58.0,50.4,46.0,41.0,38.5,36.0,74,64,48,0.00,40.00,12,7,25,0.00
2013-11-27,58.0,51.2,47.0,43.0,41.6,39.0,79,70,55,0.00,40.00,13,8,19,0.00
2013-11-28,65.0,55.5,49.0,41.0,37.1,34.0,69,51,36,0.00,40.00,9,6,36,0.00
2013-11-29,69.0,59.6,53.0,40.0,35.4,31.0,49,41,30,0.00,40.00,8,4,42,0.00
2013-11-30,64.0,56.3,50.0,41.0,34.2,-99.9,60,45,37,0.00,40.00,9,3,30,0.00
2013-12-1,66.0,58.4,49.0,40.0,36.8,33.0,61,45,34,0.00,40.00,11,5,37,0.00
2013-12-2,63.0,55.5,49.0,47.0,40.5,32.0,91,60,35,0.00,40.00,17,8,24,0.00
2013-12-3,51.0,46.1,41.0,48.0,34.4,16.0,92,65,35,0.00,40.00,22,12,35,0.00
2013-12-4,48.0,40.7,37.0,16.0,12.4,7.0,38,31,25,0.00,40.00,17,10,26,0.00
2013-12-5,46.0,38.6,33.0,13.0,10.1,7.0,41,31,25,0.00,40.00,19,9,26,0.00
2013-12-6,46.0,41.2,36.0,40.0,26.8,12.0,87,58,34,0.00,40.00,30,14,52,0.02
2013-12-7,45.0,39.4,33.0,42.0,27.0,-99.9,92,64,43,0.00,40.00,31,11,44,0.33
2013-12-8,38.0,33.2,30.0,25.0,19.8,14.0,74,58,45,0.00,40.00,19,13,28,0.01
2013-12-9,43.0,35.4,31.0,23.0,16.1,9.0,62,45,35,0.00,40.00,27,13,38,0.00
2013-12-10,46.0,39.8,32.0,26.0,22.7,17.0,65,51,33,0.00,40.00,17,-39,24,0.00
2013-12-11,49.0,41.8,34.0,29.0,24.2,14.0,63,50,32,0.00,40.00,12,8,17,0.00
2013-12-12,56.0,46.3,39.0,31.0,26.7,24.0,61,47,32,0.00,40.00,12,-36,19,0.00
2013-12-13,56.0,48.3,39.0,34.0,26.3,19.0,83,44,23,0.00,40.00,14,-40,23,0.00
2013-12-14,54.0,49.1,45.0,32.0,29.7,24.0,57,47,35,0.00,40.00,13,-29,23,0.00
2013-12-15,57.0,48.7,42.0,34.0,31.5,28.0,62,52,39,0.00,40.00,13,8,19,0.00
2013-12-16,62.0,52.8,45.0,33.0,30.2,26.0,56,43,31,0.00,40.00,11,8,15,0.00
2013-12-17,60.0,54.5,47.0,36.0,31.0,26.0,49,41,32,0.00,40.00,12,7,15,0.00
2013-12-18,59.0,53.4,45.0,43.0,33.6,25.0,88,50,31,0.00,40.00,17,9,53,0.00
2013-12-19,54.0,47.0,41.0,42.0,28.2,13.0,87,53,25,0.00,40.00,24,-28,36,0.00
2013-12-20,58.0,49.0,44.0,13.0,7.1,2.0,27,18,13,0.00,40.00,22,-85,35,0.00
2013-12-21,61.0,52.1,46.0,41.0,30.8,-99.9,66,47,21,0.00,40.00,9,4,31,0.00
2013-12-22,60.0,54.4,49.0,39.0,31.0,29.0,66,41,31,0.00,40.00,22,-35,30,0.00
2013-12-23,61.0,53.6,47.0,35.0,33.1,31.0,56,46,36,0.00,40.00,19,-49,55,0.00
2013-12-24,63.0,57.2,50.0,35.0,30.8,22.0,51,37,21,0.00,40.00,21,14,33,0.00
2013-12-25,59.0,53.1,46.0,37.0,33.0,27.0,56,47,31,0.00,40.00,15,9,25,0.00
2013-12-26,61.0,54.0,48.0,38.0,34.3,31.0,59,48,38,0.00,40.00,12,6,16,0.00
2013-12-27,57.0,51.9,49.0,37.0,32.4,25.0,59,48,38,0.00,40.00,9,4,21,0.00
2013-12-28,62.0,54.3,45.0,34.0,22.9,-99.9,57,32,20,0.00,40.00,21,12,35,0.00
2013-12-29,60.0,54.7,49.0,30.0,21.1,12.0,45,28,18,0.00,40.00,26,13,38,0.00
2013-12-30,64.0,52.6,47.0,32.0,27.9,22.0,48,39,27,0.00,40.00,10,4,22,0.00
2013-12-31,61.0,52.8,48.0,34.0,25.8,16.0,43,35,25,0.00,40.00,13,5,50,0.00
2014-1-1,63.0,55.9,48.0,25.0,20.5,13.0,30,25,18,0.00,40.00,12,6,69,0.00
2014-1-2,61.0,54.2,46.0,31.0,26.8,22.0,47,35,24,0.00,40.00,11,7,30,0.00